createdAt,value
2023-05-24T00:00:43.249Z,102352.94
2023-05-24T00:03:30.988Z,102355.72
2023-05-24T00:06:17.053Z,102332.06
2023-05-24T00:09:02.327Z,102354.25
2023-05-24T00:11:47.297Z,102355.34
2023-05-24T00:14:32.248Z,102358.16
2023-05-24T00:17:17.313Z,102355.75
2023-05-24T00:20:02.662Z,102359.47
2023-05-24T00:22:48.582Z,102339.31
2023-05-24T00:25:33.450Z,102365.81
2023-05-24T00:28:18.648Z,102356.38
2023-05-24T00:31:03.992Z,102333.28
2023-05-24T00:33:49.210Z,102343.56
2023-05-24T00:36:34.520Z,102339.31
2023-05-24T00:39:19.763Z,102301.97
2023-05-24T00:42:05.182Z,102340.31
2023-05-24T00:44:50.261Z,102340.38
2023-05-24T00:47:35.993Z,102335.09
2023-05-24T00:50:22.311Z,102309.50
2023-05-24T00:53:09.498Z,102336.34
2023-05-24T00:55:55.268Z,102340.88
2023-05-24T00:58:40.544Z,102309.72
2023-05-24T01:01:26.148Z,102325.75
2023-05-24T01:04:12.460Z,102325.66
2023-05-24T01:07:05.626Z,102327.41
2023-05-24T01:10:02.172Z,102323.81
2023-05-24T01:13:08.380Z,102324.69
2023-05-24T01:16:07.876Z,102305.75
2023-05-24T01:18:56.779Z,102320.19
2023-05-24T01:22:13.654Z,102313.19
2023-05-24T01:25:29.131Z,102294.16
2023-05-24T01:28:17.544Z,102308.59
2023-05-24T01:31:03.997Z,102320.59
2023-05-24T01:33:49.488Z,102307.50
2023-05-24T01:36:34.477Z,102323.75
2023-05-24T01:39:20.809Z,102315.94
2023-05-24T01:42:32.788Z,102320.34
2023-05-24T01:45:26.634Z,102307.53
2023-05-24T01:48:33.475Z,102313.34
2023-05-24T01:51:22.435Z,102293.66
2023-05-24T01:54:08.161Z,102299.56
2023-05-24T01:56:55.106Z,102281.56
2023-05-24T01:59:43.349Z,102260.28
2023-05-24T02:02:29.050Z,102295.09
2023-05-24T02:05:14.141Z,102300.38
2023-05-24T02:07:59.199Z,102294.34
2023-05-24T02:10:44.488Z,102256.75
2023-05-24T02:13:29.620Z,102301.06
2023-05-24T02:16:15.009Z,102294.13
2023-05-24T02:18:59.949Z,102305.59
2023-05-24T02:21:45.200Z,102304.69
2023-05-24T02:24:30.077Z,102313.09
2023-05-24T02:27:15.290Z,102292.53
2023-05-24T02:30:00.351Z,102296.66
2023-05-24T02:32:45.264Z,102308.47
2023-05-24T02:35:30.287Z,102295.56
2023-05-24T02:38:15.424Z,102271.72
2023-05-24T02:41:00.641Z,102275.91
2023-05-24T02:43:46.944Z,102287.41
2023-05-24T02:46:32.134Z,102289.34
2023-05-24T02:49:17.426Z,102280.00
2023-05-24T02:52:02.400Z,102288.63
2023-05-24T02:54:47.762Z,102285.09
2023-05-24T02:57:34.151Z,102279.88
2023-05-24T03:00:20.014Z,102244.69
2023-05-24T03:03:04.982Z,102272.97
2023-05-24T03:05:50.274Z,102272.06
2023-05-24T03:08:37.365Z,102272.13
2023-05-24T03:11:23.931Z,102267.06
2023-05-24T03:14:10.948Z,102266.41
2023-05-24T03:16:56.074Z,102270.06
2023-05-24T03:19:42.051Z,102267.66
2023-05-24T03:22:27.347Z,102258.00
2023-05-24T03:25:12.532Z,102264.16
2023-05-24T03:27:57.614Z,102254.22
2023-05-24T03:30:42.631Z,102265.16
2023-05-24T03:33:27.912Z,102266.09
2023-05-24T03:36:13.042Z,102237.41
2023-05-24T03:38:59.062Z,102261.53
2023-05-24T03:41:44.280Z,102255.38
2023-05-24T03:44:29.458Z,102266.66
2023-05-24T03:47:14.811Z,102258.09
2023-05-24T03:49:59.946Z,102266.16
2023-05-24T03:52:44.865Z,102265.16
2023-05-24T03:55:29.923Z,102257.63
2023-05-24T03:58:14.833Z,102260.28
2023-05-24T04:01:01.022Z,102268.94
2023-05-24T04:03:47.284Z,102266.44
2023-05-24T04:06:32.625Z,102272.66
2023-05-24T04:09:17.690Z,102265.09
2023-05-24T04:12:02.527Z,102277.88
2023-05-24T04:14:47.546Z,102252.38
2023-05-24T04:17:35.047Z,102253.25
2023-05-24T04:20:22.679Z,102271.09
2023-05-24T04:23:07.692Z,102272.06
2023-05-24T04:25:52.551Z,102271.16
2023-05-24T04:28:41.081Z,102236.94
2023-05-24T04:31:29.470Z,102262.69
2023-05-24T04:34:14.862Z,102260.00
2023-05-24T04:37:00.544Z,102262.59
2023-05-24T04:39:45.884Z,102263.53
2023-05-24T04:42:31.809Z,102265.09
2023-05-24T04:45:17.038Z,102260.63
2023-05-24T04:48:02.223Z,102268.41
2023-05-24T04:50:47.939Z,102256.25
2023-05-24T04:53:33.183Z,102257.22
2023-05-24T04:56:19.661Z,102250.22
2023-05-24T04:59:06.222Z,102256.03
2023-05-24T05:01:51.547Z,102223.19
2023-05-24T05:04:36.848Z,102241.75
2023-05-24T05:07:22.402Z,102255.63
2023-05-24T05:10:08.251Z,102258.25
2023-05-24T05:12:53.778Z,102253.94
2023-05-24T05:15:40.490Z,102251.88
2023-05-24T05:18:26.861Z,102252.56
2023-05-24T05:21:11.976Z,102255.97
2023-05-24T05:23:57.189Z,102245.63
2023-05-24T05:26:42.620Z,102250.63
2023-05-24T05:29:27.564Z,102248.91
2023-05-24T05:32:12.700Z,102253.84
2023-05-24T05:34:57.821Z,102255.38
2023-05-24T05:37:42.723Z,102236.28
2023-05-24T05:40:27.692Z,102250.38
2023-05-24T05:43:12.646Z,102252.47
2023-05-24T05:45:57.903Z,102228.16
2023-05-24T05:48:45.034Z,102253.38
2023-05-24T05:51:31.980Z,102254.78
2023-05-24T05:54:18.397Z,102240.41
2023-05-24T05:57:03.529Z,102261.75
2023-05-24T05:59:48.749Z,102248.28
2023-05-24T06:02:33.853Z,102258.97
2023-05-24T06:05:19.448Z,102255.81
2023-05-24T06:08:04.849Z,102259.81
2023-05-24T06:10:51.996Z,102262.06
2023-05-24T06:13:37.745Z,102262.41
2023-05-24T06:16:25.959Z,102261.38
2023-05-24T06:19:11.049Z,102270.31
2023-05-24T06:21:56.073Z,102258.44
2023-05-24T06:24:41.316Z,102257.31
2023-05-24T06:27:26.496Z,102265.31
2023-05-24T06:30:12.926Z,102239.72
2023-05-24T06:32:57.877Z,102276.28
2023-05-24T06:35:43.396Z,102276.72
2023-05-24T06:38:28.595Z,102283.81
2023-05-24T06:41:13.785Z,102276.19
2023-05-24T06:43:59.546Z,102264.38
2023-05-24T06:46:44.630Z,102270.47
2023-05-24T06:49:30.287Z,102269.94
2023-05-24T06:52:15.592Z,102253.22
2023-05-24T06:55:01.360Z,102274.53
2023-05-24T06:57:46.635Z,102282.63
2023-05-24T07:00:32.147Z,102279.00
2023-05-24T07:03:17.288Z,102286.09
2023-05-24T07:06:02.255Z,102261.47
2023-05-24T07:08:47.302Z,102274.38
2023-05-24T07:11:32.462Z,102270.16
2023-05-24T07:14:17.599Z,102252.44
2023-05-24T07:17:02.714Z,102268.03
2023-05-24T07:19:47.842Z,102251.94
2023-05-24T07:22:32.874Z,102267.72
2023-05-24T07:25:17.811Z,102264.72
2023-05-24T07:28:03.254Z,102265.88
2023-05-24T07:30:48.885Z,102269.50
2023-05-24T07:33:36.682Z,102271.34
2023-05-24T07:36:21.913Z,102250.38
2023-05-24T07:39:09.887Z,102268.25
2023-05-24T07:41:55.152Z,102259.81
2023-05-24T07:44:40.664Z,102240.59
2023-05-24T07:47:26.212Z,102250.97
2023-05-24T07:50:11.907Z,102267.78
2023-05-24T07:52:57.162Z,102258.72
2023-05-24T07:55:42.691Z,102254.56
2023-05-24T07:58:28.278Z,102261.63
2023-05-24T08:01:14.413Z,102254.25
2023-05-24T08:03:59.527Z,102238.50
2023-05-24T08:06:46.821Z,102256.56
2023-05-24T08:09:36.447Z,102261.34
2023-05-24T08:12:21.716Z,102259.00
2023-05-24T08:15:07.330Z,102258.09
2023-05-24T08:17:52.469Z,102252.59
2023-05-24T08:20:38.935Z,102252.50
2023-05-24T08:23:24.295Z,102261.84
2023-05-24T08:26:09.310Z,102259.94
2023-05-24T08:28:54.849Z,102245.44
2023-05-24T08:31:39.976Z,102261.19
2023-05-24T08:34:25.662Z,102255.38
2023-05-24T08:37:12.210Z,102258.25
2023-05-24T08:39:59.170Z,102254.97
2023-05-24T08:42:46.061Z,102265.22
2023-05-24T08:45:32.723Z,102253.38
2023-05-24T08:48:19.247Z,102261.41
2023-05-24T08:51:05.094Z,102267.72
2023-05-24T08:53:50.924Z,102260.97
2023-05-24T08:56:37.511Z,102237.97
2023-05-24T08:59:25.105Z,102249.88
2023-05-24T09:02:14.985Z,102243.53
2023-05-24T09:05:00.234Z,102242.47
2023-05-24T09:07:46.226Z,102232.03
2023-05-24T09:10:45.186Z,102225.72
2023-05-24T09:13:39.468Z,102252.81
2023-05-24T09:16:24.911Z,102231.69
2023-05-24T09:19:10.105Z,102224.56
2023-05-24T09:21:56.802Z,102239.13
2023-05-24T09:24:43.205Z,102239.94
2023-05-24T09:27:28.498Z,102239.94
2023-05-24T09:30:15.527Z,102228.59
2023-05-24T09:33:01.937Z,102240.69
2023-05-24T09:35:49.101Z,102230.19
2023-05-24T09:38:36.074Z,102234.78
2023-05-24T09:41:24.303Z,102222.63
2023-05-24T09:44:14.735Z,102234.56
2023-05-24T09:47:06.653Z,102223.09
2023-05-24T09:49:52.324Z,102222.50
2023-05-24T09:52:38.248Z,102220.19
2023-05-24T09:55:24.091Z,102215.38
2023-05-24T09:58:09.678Z,102226.59
2023-05-24T10:01:05.111Z,102229.84
2023-05-24T10:03:59.292Z,102219.91
2023-05-24T10:06:44.479Z,102227.81
2023-05-24T10:09:34.069Z,102211.19
2023-05-24T10:12:23.136Z,102212.03
2023-05-24T10:15:10.770Z,102214.13
2023-05-24T10:17:57.117Z,102210.84
2023-05-24T10:20:43.052Z,102175.47
2023-05-24T10:23:30.938Z,102210.13
2023-05-24T10:26:16.417Z,102202.09
2023-05-24T10:29:08.114Z,102203.19
2023-05-24T10:31:53.918Z,102180.09
2023-05-24T10:34:39.799Z,102178.34
2023-05-24T10:37:26.396Z,102202.97
2023-05-24T10:40:25.166Z,102201.56
2023-05-24T10:43:10.676Z,102195.69
2023-05-24T10:45:56.551Z,102197.94
2023-05-24T10:48:42.319Z,102200.28
2023-05-24T10:51:40.681Z,102203.56
2023-05-24T10:54:27.234Z,102205.81
2023-05-24T10:57:12.311Z,102210.47
2023-05-24T10:59:58.432Z,102187.72
2023-05-24T11:02:43.663Z,102201.88
2023-05-24T11:05:47.990Z,102207.88
2023-05-24T11:08:37.935Z,102197.91
2023-05-24T11:11:30.314Z,102184.50
2023-05-24T11:14:25.104Z,102181.31
2023-05-24T11:17:10.657Z,102187.16
2023-05-24T11:19:56.544Z,102188.00
2023-05-24T11:22:42.160Z,102187.25
2023-05-24T11:25:27.565Z,102190.50
2023-05-24T11:28:13.236Z,102185.59
2023-05-24T11:31:09.419Z,102190.72
2023-05-24T11:33:54.595Z,102187.00
2023-05-24T11:36:41.061Z,102171.63
2023-05-24T11:39:37.567Z,102194.53
2023-05-24T11:42:23.578Z,102183.59
2023-05-24T11:45:10.392Z,102170.28
2023-05-24T11:47:56.182Z,102185.78
2023-05-24T11:53:32.175Z,102189.69
2023-05-24T11:56:17.201Z,102177.19
2023-05-24T11:59:16.108Z,102181.59
2023-05-24T12:02:03.608Z,102189.41
2023-05-24T12:04:48.939Z,102190.44
2023-05-24T12:07:34.314Z,102195.78
2023-05-24T12:10:20.914Z,102178.06
2023-05-24T12:13:22.460Z,102190.97
2023-05-24T12:16:08.086Z,102187.16
2023-05-24T12:19:05.188Z,102190.72
2023-05-24T12:21:59.216Z,102181.84
2023-05-24T12:24:44.477Z,102181.38
2023-05-24T12:27:31.441Z,102183.06
2023-05-24T12:30:21.261Z,102173.28
2023-05-24T12:33:06.953Z,102180.34
2023-05-24T12:35:53.400Z,102168.75
2023-05-24T12:38:38.660Z,102187.94
2023-05-24T12:41:23.586Z,102179.66
2023-05-24T12:44:10.508Z,102177.28
2023-05-24T12:46:57.251Z,102179.81
2023-05-24T12:49:43.352Z,102179.66
2023-05-24T12:52:28.465Z,102176.53
2023-05-24T12:55:16.963Z,102164.19
2023-05-24T12:58:03.372Z,102158.03
2023-05-24T13:00:50.343Z,102164.31
2023-05-24T13:03:35.737Z,102172.13
2023-05-24T13:06:20.878Z,102150.94
2023-05-24T13:09:06.455Z,102153.06
2023-05-24T13:11:52.437Z,102155.25
2023-05-24T13:14:37.870Z,102153.16
2023-05-24T13:17:23.016Z,102150.75
2023-05-24T13:20:11.112Z,102152.28
2023-05-24T13:22:56.560Z,102152.91
2023-05-24T13:25:41.558Z,102160.41
2023-05-24T13:28:27.976Z,102151.75
2023-05-24T13:31:14.505Z,102154.06
2023-05-24T13:34:00.145Z,102134.72
2023-05-24T13:36:45.919Z,102140.59
2023-05-24T13:39:30.838Z,102144.94
2023-05-24T13:42:16.510Z,102139.22
2023-05-24T13:45:03.466Z,102151.56
2023-05-24T13:47:48.676Z,102145.00
2023-05-24T13:50:35.757Z,102142.28
2023-05-24T13:53:22.555Z,102132.47
2023-05-24T13:56:07.417Z,102127.00
2023-05-24T13:58:53.401Z,102145.16
2023-05-24T14:01:39.142Z,102142.03
2023-05-24T14:04:24.599Z,102137.03
2023-05-24T14:07:13.463Z,102149.44
2023-05-24T14:09:58.637Z,102149.88
2023-05-24T14:12:43.680Z,102133.88
2023-05-24T14:15:30.014Z,102138.06
2023-05-24T14:18:15.266Z,102134.03
2023-05-24T14:21:00.906Z,102140.31
2023-05-24T14:23:45.721Z,102132.97
2023-05-24T14:26:32.194Z,102136.31
2023-05-24T14:29:17.421Z,102142.75
2023-05-24T14:32:02.410Z,102148.44
2023-05-24T14:34:47.805Z,102143.91
2023-05-24T14:37:32.705Z,102137.50
2023-05-24T14:40:19.959Z,102126.25
2023-05-24T14:43:07.167Z,102147.53
2023-05-24T14:45:52.340Z,102134.81
2023-05-24T14:48:37.513Z,102120.13
2023-05-24T14:51:23.089Z,102136.75
2023-05-24T14:54:11.223Z,102114.00
2023-05-24T14:56:56.688Z,102127.09
2023-05-24T14:59:41.550Z,102133.72
2023-05-24T15:02:26.954Z,102136.09
2023-05-24T15:05:11.967Z,102132.59
2023-05-24T15:07:57.251Z,102143.00
2023-05-24T15:10:45.304Z,102124.97
2023-05-24T15:13:31.300Z,102135.81
2023-05-24T15:16:18.332Z,102135.50
2023-05-24T15:19:04.549Z,102135.72
2023-05-24T15:21:49.723Z,102127.72
2023-05-24T15:24:37.796Z,102118.22
2023-05-24T15:27:23.127Z,102125.03
2023-05-24T15:30:08.326Z,102130.25
2023-05-24T15:32:53.950Z,102133.06
2023-05-24T15:35:39.188Z,102135.22
2023-05-24T15:38:24.844Z,102128.00
2023-05-24T15:41:10.350Z,102093.75
2023-05-24T15:43:55.617Z,102129.13
2023-05-24T15:46:41.152Z,102127.34
2023-05-24T15:49:26.300Z,102129.06
2023-05-24T15:52:11.476Z,102127.94
2023-05-24T15:54:56.591Z,102127.03
2023-05-24T15:57:41.727Z,102125.53
2023-05-24T16:00:27.076Z,102126.41
2023-05-24T16:03:15.449Z,102119.94
2023-05-24T16:06:00.954Z,102113.06
2023-05-24T16:08:46.201Z,102113.00
2023-05-24T16:11:31.390Z,102116.38
2023-05-24T16:14:16.928Z,102116.69
2023-05-24T16:17:06.201Z,102105.97
2023-05-24T16:19:51.145Z,102098.63
2023-05-24T16:22:36.780Z,102115.03
2023-05-24T16:25:21.942Z,102118.75
2023-05-24T16:28:07.133Z,102094.53
2023-05-24T16:30:55.521Z,102110.94
2023-05-24T16:33:40.709Z,102113.44
2023-05-24T16:36:27.047Z,102115.28
2023-05-24T16:39:12.172Z,102109.78
2023-05-24T16:41:58.209Z,102097.22
2023-05-24T16:44:44.772Z,102111.09
2023-05-24T16:47:30.138Z,102086.44
2023-05-24T16:50:15.640Z,102107.38
2023-05-24T16:53:00.876Z,102113.31
2023-05-24T16:55:45.948Z,102104.81
2023-05-24T16:58:31.528Z,102095.22
2023-05-24T17:01:16.554Z,102107.44
2023-05-24T17:04:01.870Z,102099.56
2023-05-24T17:06:47.385Z,102098.47
2023-05-24T17:09:32.595Z,102105.78
2023-05-24T17:12:18.279Z,102102.59
2023-05-24T17:15:05.184Z,102105.53
2023-05-24T17:17:51.751Z,102107.50
2023-05-24T17:20:36.744Z,102106.00
2023-05-24T17:23:21.853Z,102107.03
2023-05-24T17:26:11.148Z,102114.59
2023-05-24T17:28:56.389Z,102110.38
2023-05-24T17:31:41.663Z,102111.16
2023-05-24T17:34:27.140Z,102114.56
2023-05-24T17:37:12.429Z,102074.03
2023-05-24T17:39:57.710Z,102114.91
2023-05-24T17:42:43.199Z,102112.22
2023-05-24T17:45:28.570Z,102107.22
2023-05-24T17:48:13.765Z,102124.03
2023-05-24T17:51:01.125Z,102121.91
2023-05-24T17:53:46.992Z,102120.91
2023-05-24T17:56:32.044Z,102126.59
2023-05-24T17:59:17.646Z,102124.31
2023-05-24T18:02:02.798Z,102084.09
2023-05-24T18:04:47.701Z,102130.69
2023-05-24T18:07:33.372Z,102125.41
2023-05-24T18:10:19.240Z,102131.72
2023-05-24T18:13:07.751Z,102110.53
2023-05-24T18:15:53.058Z,102143.13
2023-05-24T18:18:38.578Z,102135.53
2023-05-24T18:21:23.949Z,102140.72
2023-05-24T18:24:09.092Z,102130.03
2023-05-24T18:26:53.980Z,102144.38
2023-05-24T18:29:39.186Z,102134.81
2023-05-24T18:32:24.614Z,102146.19
2023-05-24T18:35:12.095Z,102156.84
2023-05-24T18:37:57.593Z,102161.97
2023-05-24T18:40:42.881Z,102167.94
2023-05-24T18:43:27.844Z,102170.44
2023-05-24T18:46:14.618Z,102172.78
2023-05-24T18:49:01.768Z,102173.69
2023-05-24T18:51:46.960Z,102165.78
2023-05-24T18:54:31.843Z,102160.38
2023-05-24T18:57:17.205Z,102155.03
2023-05-24T19:00:02.057Z,102170.88
2023-05-24T19:02:47.053Z,102169.50
2023-05-24T19:05:32.336Z,102171.59
2023-05-24T19:08:17.991Z,102170.97
2023-05-24T19:11:03.249Z,102162.22
2023-05-24T19:13:48.415Z,102178.75
2023-05-24T19:16:33.353Z,102183.28
2023-05-24T19:19:18.272Z,102191.88
2023-05-24T19:22:03.422Z,102187.66
2023-05-24T19:24:48.498Z,102194.81
2023-05-24T19:27:34.960Z,102189.97
2023-05-24T19:30:21.702Z,102197.88
2023-05-24T19:33:07.400Z,102183.66
2023-05-24T19:35:52.665Z,102207.41
2023-05-24T19:38:37.852Z,102214.91
2023-05-24T19:41:22.938Z,102214.16
2023-05-24T19:44:08.397Z,102214.16
2023-05-24T19:46:53.569Z,102223.19
2023-05-24T19:49:38.400Z,102230.63
2023-05-24T19:52:23.310Z,102231.44
2023-05-24T19:55:09.539Z,102234.31
2023-05-24T19:57:54.670Z,102235.69
2023-05-24T20:00:39.475Z,102242.41
2023-05-24T20:03:25.085Z,102238.50
2023-05-24T20:06:10.084Z,102250.97
2023-05-24T20:08:57.720Z,102247.34
2023-05-24T20:11:42.850Z,102250.06
2023-05-24T20:14:31.263Z,102260.25
2023-05-24T20:17:16.854Z,102263.34
2023-05-24T20:20:02.492Z,102244.97
2023-05-24T20:22:47.783Z,102263.50
2023-05-24T20:25:33.191Z,102267.75
2023-05-24T20:28:29.553Z,102273.03
2023-05-24T20:31:17.123Z,102261.94
2023-05-24T20:34:02.297Z,102276.44
2023-05-24T20:36:47.711Z,102277.94
2023-05-24T20:39:33.320Z,102265.22
2023-05-24T20:42:18.416Z,102278.78
2023-05-24T20:45:04.139Z,102275.81
2023-05-24T20:47:49.024Z,102279.22
2023-05-24T20:50:34.004Z,102259.81
2023-05-24T20:53:19.028Z,102288.09
2023-05-24T20:56:04.497Z,102289.75
2023-05-24T20:58:54.104Z,102282.13
2023-05-24T21:01:39.032Z,102293.75
2023-05-24T21:04:24.361Z,102263.97
2023-05-24T21:07:09.255Z,102288.44
2023-05-24T21:09:54.231Z,102285.75
2023-05-24T21:12:39.483Z,102287.75
2023-05-24T21:15:24.950Z,102292.81
2023-05-24T21:18:10.291Z,102286.03
2023-05-24T21:20:55.114Z,102289.19
2023-05-24T21:23:40.059Z,102286.00
2023-05-24T21:26:26.507Z,102266.81
2023-05-24T21:29:13.167Z,102274.47
2023-05-24T21:31:58.418Z,102285.19
2023-05-24T21:34:43.835Z,102294.84
2023-05-24T21:37:28.752Z,102296.72
2023-05-24T21:40:13.839Z,102295.53
2023-05-24T21:42:58.742Z,102297.28
2023-05-24T21:45:43.883Z,102303.94
2023-05-24T21:48:29.047Z,102306.22
2023-05-24T21:51:15.514Z,102316.03
2023-05-24T21:54:00.887Z,102311.13
2023-05-24T21:56:46.775Z,102312.72
2023-05-24T21:59:31.737Z,102313.78
2023-05-24T22:02:16.681Z,102318.22
2023-05-24T22:05:01.716Z,102320.38
2023-05-24T22:07:46.623Z,102300.09
2023-05-24T22:10:31.461Z,102322.63
2023-05-24T22:13:16.407Z,102321.72
2023-05-24T22:16:02.012Z,102306.31
2023-05-24T22:18:48.000Z,102328.88
2023-05-24T22:21:33.581Z,102328.34
2023-05-24T22:24:18.528Z,102326.06
2023-05-24T22:27:04.333Z,102313.72
2023-05-24T22:29:49.641Z,102325.56
2023-05-24T22:32:34.729Z,102327.47
2023-05-24T22:35:19.631Z,102328.78
2023-05-24T22:38:04.742Z,102328.56
2023-05-24T22:40:57.466Z,102329.50
2023-05-24T22:43:42.391Z,102337.28
2023-05-24T22:46:27.530Z,102346.97
2023-05-24T22:49:13.371Z,102345.47
2023-05-24T22:51:58.729Z,102346.38
2023-05-24T22:54:43.831Z,102323.63
2023-05-24T22:57:29.240Z,102346.75
2023-05-24T23:00:15.436Z,102342.00
2023-05-24T23:03:00.814Z,102352.00
2023-05-24T23:05:46.115Z,102341.16
2023-05-24T23:08:32.203Z,102339.38
2023-05-24T23:11:17.890Z,102343.28
2023-05-24T23:14:03.003Z,102346.78
2023-05-24T23:16:47.817Z,102347.06
2023-05-24T23:19:33.130Z,102322.66
2023-05-24T23:22:23.696Z,102343.22
2023-05-24T23:25:09.945Z,102330.16
2023-05-24T23:27:55.155Z,102352.75
2023-05-24T23:30:40.353Z,102360.84
2023-05-24T23:33:25.566Z,102354.00
2023-05-24T23:36:10.919Z,102356.06
2023-05-24T23:38:56.098Z,102330.69
2023-05-24T23:41:41.050Z,102361.66
2023-05-24T23:44:26.335Z,102352.47
2023-05-24T23:47:11.491Z,102354.56
2023-05-24T23:49:56.698Z,102341.19
2023-05-24T23:52:41.805Z,102349.09
2023-05-24T23:55:27.040Z,102360.34
2023-05-24T23:58:12.167Z,102351.06
